sensor_id;sensor_type;location;lat;lon;timestamp;pressure;altitude;pressure_sealevel;temperature;humidity
16613;BME280;8419;52.358;9.752;2022-10-04T00:02:20;101710.00;;;20.66;43.05
16613;BME280;8419;52.358;9.752;2022-10-04T00:05:11;101701.00;;;20.76;42.91
16613;BME280;8419;52.358;9.752;2022-10-04T00:08:20;101692.00;;;20.65;43.25
16613;BME280;8419;52.358;9.752;2022-10-04T00:11:13;101689.00;;;20.82;43.10
16613;BME280;8419;52.358;9.752;2022-10-04T00:14:08;101697.00;;;20.77;43.21
16613;BME280;8419;52.358;9.752;2022-10-04T00:16:58;101687.00;;;20.77;43.33
16613;BME280;8419;52.358;9.752;2022-10-04T00:19:45;101681.00;;;20.85;43.18
16613;BME280;8419;52.358;9.752;2022-10-04T00:22:32;101681.00;;;21.03;42.86
16613;BME280;8419;52.358;9.752;2022-10-04T00:25:19;101676.00;;;21.03;42.88
16613;BME280;8419;52.358;9.752;2022-10-04T00:28:27;101682.00;;;21.06;42.88
16613;BME280;8419;52.358;9.752;2022-10-04T00:31:20;101673.00;;;21.04;42.96
16613;BME280;8419;52.358;9.752;2022-10-04T00:34:44;101676.00;;;20.96;43.10
16613;BME280;8419;52.358;9.752;2022-10-04T00:37:54;101675.00;;;20.97;43.09
16613;BME280;8419;52.358;9.752;2022-10-04T00:40:48;101679.00;;;21.00;43.05
16613;BME280;8419;52.358;9.752;2022-10-04T00:43:37;101678.00;;;20.94;43.08
16613;BME280;8419;52.358;9.752;2022-10-04T00:46:27;101669.00;;;20.98;42.96
16613;BME280;8419;52.358;9.752;2022-10-04T00:49:16;101669.00;;;20.97;43.00
16613;BME280;8419;52.358;9.752;2022-10-04T00:52:10;101658.00;;;20.95;43.07
16613;BME280;8419;52.358;9.752;2022-10-04T00:55:01;101654.00;;;21.03;42.94
16613;BME280;8419;52.358;9.752;2022-10-04T00:57:53;101645.00;;;21.04;42.91
16613;BME280;8419;52.358;9.752;2022-10-04T01:00:42;101654.00;;;21.01;42.96
16613;BME280;8419;52.358;9.752;2022-10-04T01:03:32;101653.00;;;21.08;42.80
16613;BME280;8419;52.358;9.752;2022-10-04T01:06:21;101667.00;;;21.04;42.93
16613;BME280;8419;52.358;9.752;2022-10-04T01:09:10;101656.00;;;21.10;42.72
16613;BME280;8419;52.358;9.752;2022-10-04T01:12:01;101646.00;;;21.18;42.54
16613;BME280;8419;52.358;9.752;2022-10-04T01:14:53;101637.00;;;20.95;42.96
16613;BME280;8419;52.358;9.752;2022-10-04T01:18:06;101639.00;;;21.13;42.78
16613;BME280;8419;52.358;9.752;2022-10-04T01:20:55;101643.00;;;21.18;42.65
16613;BME280;8419;52.358;9.752;2022-10-04T01:23:43;101627.00;;;21.18;42.51
16613;BME280;8419;52.358;9.752;2022-10-04T01:29:25;101629.00;;;21.07;42.68
16613;BME280;8419;52.358;9.752;2022-10-04T01:32:12;101627.00;;;21.02;42.85
16613;BME280;8419;52.358;9.752;2022-10-04T01:34:58;101618.00;;;21.02;42.85
16613;BME280;8419;52.358;9.752;2022-10-04T01:37:44;101628.00;;;21.06;42.85
16613;BME280;8419;52.358;9.752;2022-10-04T01:40:30;101629.00;;;21.07;42.87
16613;BME280;8419;52.358;9.752;2022-10-04T01:43:21;101636.00;;;20.79;43.40
16613;BME280;8419;52.358;9.752;2022-10-04T01:46:15;101629.00;;;21.07;42.81
16613;BME280;8419;52.358;9.752;2022-10-04T01:49:10;101631.00;;;20.98;42.93
16613;BME280;8419;52.358;9.752;2022-10-04T01:51:59;101631.00;;;20.98;42.88
16613;BME280;8419;52.358;9.752;2022-10-04T01:54:48;101632.00;;;20.94;42.97
16613;BME280;8419;52.358;9.752;2022-10-04T01:57:41;101633.00;;;20.93;42.99
16613;BME280;8419;52.358;9.752;2022-10-04T02:00:30;101625.00;;;20.92;43.01
16613;BME280;8419;52.358;9.752;2022-10-04T02:03:19;101630.00;;;20.94;42.99
16613;BME280;8419;52.358;9.752;2022-10-04T02:06:08;101623.00;;;20.95;42.93
16613;BME280;8419;52.358;9.752;2022-10-04T02:08:57;101625.00;;;20.95;42.94
16613;BME280;8419;52.358;9.752;2022-10-04T02:11:44;101604.00;;;20.95;42.94
16613;BME280;8419;52.358;9.752;2022-10-04T02:14:35;101607.00;;;20.94;42.95
16613;BME280;8419;52.358;9.752;2022-10-04T02:17:26;101604.00;;;20.93;42.96
16613;BME280;8419;52.358;9.752;2022-10-04T02:20:17;101600.00;;;20.93;42.97
16613;BME280;8419;52.358;9.752;2022-10-04T02:23:04;101599.00;;;20.92;42.97
16613;BME280;8419;52.358;9.752;2022-10-04T02:25:50;101598.00;;;20.95;42.87
16613;BME280;8419;52.358;9.752;2022-10-04T02:28:37;101592.00;;;20.91;42.95
16613;BME280;8419;52.358;9.752;2022-10-04T02:31:23;101600.00;;;21.01;42.80
16613;BME280;8419;52.358;9.752;2022-10-04T02:34:28;101601.00;;;20.92;42.97
16613;BME280;8419;52.358;9.752;2022-10-04T02:37:14;101602.00;;;21.01;42.80
16613;BME280;8419;52.358;9.752;2022-10-04T02:40:06;101581.00;;;21.09;42.67
16613;BME280;8419;52.358;9.752;2022-10-04T02:42:57;101586.00;;;21.01;42.85
16613;BME280;8419;52.358;9.752;2022-10-04T02:45:49;101575.00;;;21.03;42.81
16613;BME280;8419;52.358;9.752;2022-10-04T02:48:42;101576.00;;;21.03;42.81
16613;BME280;8419;52.358;9.752;2022-10-04T02:51:33;101561.00;;;21.05;42.79
16613;BME280;8419;52.358;9.752;2022-10-04T02:54:28;101562.00;;;21.05;42.72
16613;BME280;8419;52.358;9.752;2022-10-04T02:57:17;101579.00;;;20.77;43.29
16613;BME280;8419;52.358;9.752;2022-10-04T03:00:12;101580.00;;;20.84;43.09
16613;BME280;8419;52.358;9.752;2022-10-04T03:03:13;101577.00;;;20.82;43.21
16613;BME280;8419;52.358;9.752;2022-10-04T03:06:03;101566.00;;;20.88;43.03
16613;BME280;8419;52.358;9.752;2022-10-04T03:08:52;101571.00;;;20.81;43.20
16613;BME280;8419;52.358;9.752;2022-10-04T03:11:39;101574.00;;;20.82;43.26
16613;BME280;8419;52.358;9.752;2022-10-04T03:14:26;101571.00;;;20.85;43.20
16613;BME280;8419;52.358;9.752;2022-10-04T03:17:14;101566.00;;;20.76;43.46
16613;BME280;8419;52.358;9.752;2022-10-04T03:20:02;101553.00;;;20.83;43.30
16613;BME280;8419;52.358;9.752;2022-10-04T03:22:52;101554.00;;;20.86;43.25
16613;BME280;8419;52.358;9.752;2022-10-04T03:25:47;101554.00;;;20.97;42.94
16613;BME280;8419;52.358;9.752;2022-10-04T03:28:36;101555.00;;;20.85;43.27
16613;BME280;8419;52.358;9.752;2022-10-04T03:31:22;101560.00;;;20.97;42.94
16613;BME280;8419;52.358;9.752;2022-10-04T03:34:16;101549.00;;;21.04;42.78
16613;BME280;8419;52.358;9.752;2022-10-04T03:37:03;101555.00;;;20.84;43.23
16613;BME280;8419;52.358;9.752;2022-10-04T03:39:53;101547.00;;;20.84;43.24
16613;BME280;8419;52.358;9.752;2022-10-04T03:42:40;101539.00;;;20.88;43.17
16613;BME280;8419;52.358;9.752;2022-10-04T03:45:29;101542.00;;;20.96;43.04
16613;BME280;8419;52.358;9.752;2022-10-04T03:48:24;101542.00;;;21.03;42.90
16613;BME280;8419;52.358;9.752;2022-10-04T03:51:14;101540.00;;;21.05;42.89
16613;BME280;8419;52.358;9.752;2022-10-04T03:54:02;101547.00;;;21.03;42.91
16613;BME280;8419;52.358;9.752;2022-10-04T03:56:48;101533.00;;;21.03;42.97
16613;BME280;8419;52.358;9.752;2022-10-04T03:59:35;101536.00;;;21.03;42.94
16613;BME280;8419;52.358;9.752;2022-10-04T04:02:29;101536.00;;;21.10;42.75
16613;BME280;8419;52.358;9.752;2022-10-04T04:05:20;101531.00;;;21.09;42.77
16613;BME280;8419;52.358;9.752;2022-10-04T04:08:13;101539.00;;;21.09;42.75
16613;BME280;8419;52.358;9.752;2022-10-04T04:11:05;101528.00;;;21.06;42.77
16613;BME280;8419;52.358;9.752;2022-10-04T04:13:56;101524.00;;;21.07;42.75
16613;BME280;8419;52.358;9.752;2022-10-04T04:16:44;101525.00;;;21.03;42.82
16613;BME280;8419;52.358;9.752;2022-10-04T04:19:30;101531.00;;;21.06;42.80
16613;BME280;8419;52.358;9.752;2022-10-04T04:22:18;101531.00;;;21.00;42.92
16613;BME280;8419;52.358;9.752;2022-10-04T04:25:10;101537.00;;;20.89;43.04
16613;BME280;8419;52.358;9.752;2022-10-04T04:28:06;101546.00;;;20.82;43.16
16613;BME280;8419;52.358;9.752;2022-10-04T04:31:00;101546.00;;;20.75;43.20
16613;BME280;8419;52.358;9.752;2022-10-04T04:33:52;101541.00;;;20.66;43.31
16613;BME280;8419;52.358;9.752;2022-10-04T04:36:40;101529.00;;;20.76;43.05
16613;BME280;8419;52.358;9.752;2022-10-04T04:39:28;101529.00;;;20.73;43.01
16613;BME280;8419;52.358;9.752;2022-10-04T04:42:29;101529.00;;;20.58;43.38
16613;BME280;8419;52.358;9.752;2022-10-04T04:45:18;101527.00;;;20.54;43.55
16613;BME280;8419;52.358;9.752;2022-10-04T04:48:07;101523.00;;;20.53;43.61
16613;BME280;8419;52.358;9.752;2022-10-04T04:50:54;101521.00;;;20.65;43.32
16613;BME280;8419;52.358;9.752;2022-10-04T04:53:42;101518.00;;;20.81;43.04
16613;BME280;8419;52.358;9.752;2022-10-04T04:56:30;101515.00;;;20.56;43.53
16613;BME280;8419;52.358;9.752;2022-10-04T04:59:17;101519.00;;;20.64;43.44
16613;BME280;8419;52.358;9.752;2022-10-04T05:02:27;101524.00;;;20.58;43.49
16613;BME280;8419;52.358;9.752;2022-10-04T05:05:18;101529.00;;;20.70;43.31
16613;BME280;8419;52.358;9.752;2022-10-04T05:08:13;101531.00;;;20.79;43.07
16613;BME280;8419;52.358;9.752;2022-10-04T05:11:03;101543.00;;;20.62;43.53
16613;BME280;8419;52.358;9.752;2022-10-04T05:13:52;101540.00;;;20.76;43.26
16613;BME280;8419;52.358;9.752;2022-10-04T05:16:43;101540.00;;;20.67;43.41
16613;BME280;8419;52.358;9.752;2022-10-04T05:19:33;101537.00;;;20.65;43.48
16613;BME280;8419;52.358;9.752;2022-10-04T05:22:21;101545.00;;;20.63;43.57
16613;BME280;8419;52.358;9.752;2022-10-04T05:25:13;101541.00;;;20.61;43.62
16613;BME280;8419;52.358;9.752;2022-10-04T05:28:00;101540.00;;;20.70;43.38
16613;BME280;8419;52.358;9.752;2022-10-04T05:30:59;101535.00;;;20.62;43.60
16613;BME280;8419;52.358;9.752;2022-10-04T05:33:49;101535.00;;;20.61;43.67
16613;BME280;8419;52.358;9.752;2022-10-04T05:36:43;101545.00;;;20.63;43.62
16613;BME280;8419;52.358;9.752;2022-10-04T05:39:34;101537.00;;;20.64;43.59
16613;BME280;8419;52.358;9.752;2022-10-04T05:42:27;101537.00;;;20.65;43.52
16613;BME280;8419;52.358;9.752;2022-10-04T05:45:20;101536.00;;;20.68;43.47
16613;BME280;8419;52.358;9.752;2022-10-04T05:48:07;101540.00;;;20.67;43.46
16613;BME280;8419;52.358;9.752;2022-10-04T05:50:54;101530.00;;;20.67;43.45
16613;BME280;8419;52.358;9.752;2022-10-04T05:53:41;101532.00;;;20.68;43.46
16613;BME280;8419;52.358;9.752;2022-10-04T05:57:00;101528.00;;;20.68;43.48
16613;BME280;8419;52.358;9.752;2022-10-04T06:03:23;101527.00;;;20.83;43.54
16613;BME280;8419;52.358;9.752;2022-10-04T06:06:14;101534.00;;;20.73;43.54
16613;BME280;8419;52.358;9.752;2022-10-04T06:09:13;101530.00;;;20.77;43.42
16613;BME280;8419;52.358;9.752;2022-10-04T06:12:08;101533.00;;;20.77;43.43
16613;BME280;8419;52.358;9.752;2022-10-04T06:15:15;101537.00;;;20.83;43.36
16613;BME280;8419;52.358;9.752;2022-10-04T06:18:15;101538.00;;;20.89;43.33
16613;BME280;8419;52.358;9.752;2022-10-04T06:21:18;101548.00;;;20.90;43.30
16613;BME280;8419;52.358;9.752;2022-10-04T06:24:11;101545.00;;;20.95;43.30
16613;BME280;8419;52.358;9.752;2022-10-04T06:27:02;101547.00;;;21.00;43.28
16613;BME280;8419;52.358;9.752;2022-10-04T06:29:52;101539.00;;;21.08;43.13
16613;BME280;8419;52.358;9.752;2022-10-04T06:35:56;101549.00;;;21.16;43.13
16613;BME280;8419;52.358;9.752;2022-10-04T06:39:05;101551.00;;;21.15;43.17
16613;BME280;8419;52.358;9.752;2022-10-04T06:42:16;101547.00;;;21.23;43.04
16613;BME280;8419;52.358;9.752;2022-10-04T06:45:25;101560.00;;;21.26;42.99
16613;BME280;8419;52.358;9.752;2022-10-04T06:48:35;101560.00;;;21.29;42.96
16613;BME280;8419;52.358;9.752;2022-10-04T06:51:52;101552.00;;;21.34;42.91
16613;BME280;8419;52.358;9.752;2022-10-04T06:58:36;101563.00;;;21.44;42.76
16613;BME280;8419;52.358;9.752;2022-10-04T07:01:29;101562.00;;;21.51;42.69
16613;BME280;8419;52.358;9.752;2022-10-04T07:04:24;101560.00;;;21.52;42.64
16613;BME280;8419;52.358;9.752;2022-10-04T07:07:22;101558.00;;;21.55;42.64
16613;BME280;8419;52.358;9.752;2022-10-04T07:13:37;101548.00;;;21.85;42.50
16613;BME280;8419;52.358;9.752;2022-10-04T07:16:33;101547.00;;;21.83;42.38
16613;BME280;8419;52.358;9.752;2022-10-04T07:19:35;101541.00;;;21.95;42.24
16613;BME280;8419;52.358;9.752;2022-10-04T07:22:26;101541.00;;;22.30;41.61
16613;BME280;8419;52.358;9.752;2022-10-04T07:25:18;101534.00;;;22.16;41.90
16613;BME280;8419;52.358;9.752;2022-10-04T07:28:12;101537.00;;;22.18;41.95
16613;BME280;8419;52.358;9.752;2022-10-04T07:31:23;101536.00;;;22.27;41.88
16613;BME280;8419;52.358;9.752;2022-10-04T07:34:16;101539.00;;;22.35;41.77
16613;BME280;8419;52.358;9.752;2022-10-04T07:37:08;101547.00;;;22.51;41.62
16613;BME280;8419;52.358;9.752;2022-10-04T07:40:01;101544.00;;;22.86;41.01
16613;BME280;8419;52.358;9.752;2022-10-04T07:42:51;101540.00;;;22.74;41.28
16613;BME280;8419;52.358;9.752;2022-10-04T07:45:41;101553.00;;;22.82;41.20
16613;BME280;8419;52.358;9.752;2022-10-04T07:48:27;101557.00;;;22.83;41.17
16613;BME280;8419;52.358;9.752;2022-10-04T07:51:20;101563.00;;;22.78;41.22
16613;BME280;8419;52.358;9.752;2022-10-04T07:54:14;101563.00;;;22.81;41.17
16613;BME280;8419;52.358;9.752;2022-10-04T07:57:10;101569.00;;;22.91;40.85
16613;BME280;8419;52.358;9.752;2022-10-04T08:00:03;101560.00;;;22.92;40.73
16613;BME280;8419;52.358;9.752;2022-10-04T08:03:07;101565.00;;;22.84;40.80
16613;BME280;8419;52.358;9.752;2022-10-04T08:06:08;101563.00;;;22.72;40.97
16613;BME280;8419;52.358;9.752;2022-10-04T08:09:27;101565.00;;;22.57;41.24
16613;BME280;8419;52.358;9.752;2022-10-04T08:12:22;101564.00;;;22.48;41.42
16613;BME280;8419;52.358;9.752;2022-10-04T08:18:36;101564.00;;;22.60;41.13
16613;BME280;8419;52.358;9.752;2022-10-04T08:21:33;101557.00;;;22.62;41.01
16613;BME280;8419;52.358;9.752;2022-10-04T08:24:30;101563.00;;;22.40;41.44
16613;BME280;8419;52.358;9.752;2022-10-04T08:27:33;101561.00;;;22.42;41.50
16613;BME280;8419;52.358;9.752;2022-10-04T08:30:25;101556.00;;;22.55;41.41
16613;BME280;8419;52.358;9.752;2022-10-04T08:33:21;101551.00;;;22.71;41.20
16613;BME280;8419;52.358;9.752;2022-10-04T08:36:18;101537.00;;;22.98;40.87
16613;BME280;8419;52.358;9.752;2022-10-04T08:39:09;101542.00;;;23.27;40.52
16613;BME280;8419;52.358;9.752;2022-10-04T08:42:27;101539.00;;;23.41;40.37
16613;BME280;8419;52.358;9.752;2022-10-04T08:52:45;101535.00;;;24.04;39.65
16613;BME280;8419;52.358;9.752;2022-10-04T08:55:43;101536.00;;;24.11;39.37
16613;BME280;8419;52.358;9.752;2022-10-04T08:59:13;101548.00;;;23.91;39.72
16613;BME280;8419;52.358;9.752;2022-10-04T09:02:19;101556.00;;;23.94;39.65
16613;BME280;8419;52.358;9.752;2022-10-04T09:05:39;101557.00;;;23.93;39.62
16613;BME280;8419;52.358;9.752;2022-10-04T09:15:51;101552.00;;;24.40;39.19
16613;BME280;8419;52.358;9.752;2022-10-04T09:19:10;101552.00;;;24.38;39.02
16613;BME280;8419;52.358;9.752;2022-10-04T09:22:17;101556.00;;;24.53;38.90
16613;BME280;8419;52.358;9.752;2022-10-04T09:25:32;101559.00;;;24.67;38.78
16613;BME280;8419;52.358;9.752;2022-10-04T09:28:49;101553.00;;;24.79;38.57
16613;BME280;8419;52.358;9.752;2022-10-04T09:32:02;101549.00;;;24.85;38.56
16613;BME280;8419;52.358;9.752;2022-10-04T09:35:16;101554.00;;;25.01;38.32
16613;BME280;8419;52.358;9.752;2022-10-04T09:38:38;101541.00;;;25.12;38.24
16613;BME280;8419;52.358;9.752;2022-10-04T09:41:49;101535.00;;;25.31;37.99
16613;BME280;8419;52.358;9.752;2022-10-04T09:45:10;101536.00;;;25.37;37.90
16613;BME280;8419;52.358;9.752;2022-10-04T09:48:20;101531.00;;;25.54;37.77
16613;BME280;8419;52.358;9.752;2022-10-04T09:51:53;101526.00;;;25.64;37.64
16613;BME280;8419;52.358;9.752;2022-10-04T09:55:12;101525.00;;;25.86;37.23
16613;BME280;8419;52.358;9.752;2022-10-04T09:58:11;101526.00;;;26.11;36.95
16613;BME280;8419;52.358;9.752;2022-10-04T10:01:07;101530.00;;;26.38;36.57
16613;BME280;8419;52.358;9.752;2022-10-04T10:04:16;101518.00;;;26.50;36.41
16613;BME280;8419;52.358;9.752;2022-10-04T10:07:23;101522.00;;;26.65;36.24
16613;BME280;8419;52.358;9.752;2022-10-04T10:10:22;101517.00;;;26.64;36.18
16613;BME280;8419;52.358;9.752;2022-10-04T10:16:55;101526.00;;;26.06;36.42
16613;BME280;8419;52.358;9.752;2022-10-04T10:23:26;101503.00;;;25.70;36.45
16613;BME280;8419;52.358;9.752;2022-10-04T10:30:20;101515.00;;;25.90;36.20
16613;BME280;8419;52.358;9.752;2022-10-04T10:37:07;101515.00;;;26.03;35.95
16613;BME280;8419;52.358;9.752;2022-10-04T10:40:13;101519.00;;;26.02;35.81
16613;BME280;8419;52.358;9.752;2022-10-04T10:43:21;101511.00;;;26.26;35.32
16613;BME280;8419;52.358;9.752;2022-10-04T10:46:24;101508.00;;;26.29;35.28
16613;BME280;8419;52.358;9.752;2022-10-04T10:49:27;101499.00;;;26.26;35.26
16613;BME280;8419;52.358;9.752;2022-10-04T10:56:30;101484.00;;;26.49;34.60
16613;BME280;8419;52.358;9.752;2022-10-04T10:59:51;101484.00;;;26.52;34.46
16613;BME280;8419;52.358;9.752;2022-10-04T11:03:20;101482.00;;;26.69;34.25
16613;BME280;8419;52.358;9.752;2022-10-04T11:06:20;101479.00;;;27.00;33.76
16613;BME280;8419;52.358;9.752;2022-10-04T11:15:49;101461.00;;;27.14;33.33
16613;BME280;8419;52.358;9.752;2022-10-04T11:19:04;101457.00;;;27.24;33.14
16613;BME280;8419;52.358;9.752;2022-10-04T11:22:50;101460.00;;;27.25;33.13
16613;BME280;8419;52.358;9.752;2022-10-04T11:26:17;101465.00;;;27.30;33.07
16613;BME280;8419;52.358;9.752;2022-10-04T11:29:17;101456.00;;;27.46;32.76
16613;BME280;8419;52.358;9.752;2022-10-04T11:35:57;101456.00;;;27.71;32.47
16613;BME280;8419;52.358;9.752;2022-10-04T11:42:18;101458.00;;;28.05;31.77
16613;BME280;8419;52.358;9.752;2022-10-04T11:45:23;101457.00;;;28.24;31.35
16613;BME280;8419;52.358;9.752;2022-10-04T11:48:25;101451.00;;;28.43;30.84
16613;BME280;8419;52.358;9.752;2022-10-04T11:51:36;101454.00;;;28.51;30.48
16613;BME280;8419;52.358;9.752;2022-10-04T11:54:48;101447.00;;;28.63;30.31
16613;BME280;8419;52.358;9.752;2022-10-04T11:57:47;101442.00;;;28.77;30.21
16613;BME280;8419;52.358;9.752;2022-10-04T12:00:50;101438.00;;;29.07;29.95
16613;BME280;8419;52.358;9.752;2022-10-04T12:03:58;101432.00;;;29.36;29.44
16613;BME280;8419;52.358;9.752;2022-10-04T12:07:01;101439.00;;;29.56;29.20
16613;BME280;8419;52.358;9.752;2022-10-04T12:09:58;101430.00;;;29.70;29.08
16613;BME280;8419;52.358;9.752;2022-10-04T12:13:17;101427.00;;;29.77;28.78
16613;BME280;8419;52.358;9.752;2022-10-04T12:23:03;101411.00;;;30.54;27.42
16613;BME280;8419;52.358;9.752;2022-10-04T12:29:35;101406.00;;;30.97;26.96
16613;BME280;8419;52.358;9.752;2022-10-04T12:32:29;101393.00;;;31.29;26.61
16613;BME280;8419;52.358;9.752;2022-10-04T12:35:25;101387.00;;;31.44;26.35
16613;BME280;8419;52.358;9.752;2022-10-04T12:41:55;101373.00;;;31.90;25.52
16613;BME280;8419;52.358;9.752;2022-10-04T12:45:01;101379.00;;;32.18;25.32
16613;BME280;8419;52.358;9.752;2022-10-04T12:48:05;101371.00;;;32.57;25.04
16613;BME280;8419;52.358;9.752;2022-10-04T12:51:00;101371.00;;;32.72;24.98
16613;BME280;8419;52.358;9.752;2022-10-04T12:53:54;101369.00;;;32.79;24.81
16613;BME280;8419;52.358;9.752;2022-10-04T12:56:48;101367.00;;;32.85;24.66
16613;BME280;8419;52.358;9.752;2022-10-04T12:59:46;101366.00;;;32.79;24.62
16613;BME280;8419;52.358;9.752;2022-10-04T13:02:56;101350.00;;;32.99;24.57
16613;BME280;8419;52.358;9.752;2022-10-04T13:05:53;101350.00;;;33.34;24.12
16613;BME280;8419;52.358;9.752;2022-10-04T13:08:58;101348.00;;;33.34;24.02
16613;BME280;8419;52.358;9.752;2022-10-04T13:12:08;101339.00;;;33.55;23.93
16613;BME280;8419;52.358;9.752;2022-10-04T13:15:18;101343.00;;;33.71;23.77
16613;BME280;8419;52.358;9.752;2022-10-04T13:18:13;101341.00;;;33.38;24.11
16613;BME280;8419;52.358;9.752;2022-10-04T13:21:06;101335.00;;;32.88;24.45
16613;BME280;8419;52.358;9.752;2022-10-04T13:24:03;101329.00;;;32.18;25.11
16613;BME280;8419;52.358;9.752;2022-10-04T13:26:55;101322.00;;;31.65;25.63
16613;BME280;8419;52.358;9.752;2022-10-04T13:29:48;101326.00;;;31.14;26.07
16613;BME280;8419;52.358;9.752;2022-10-04T13:32:43;101326.00;;;31.02;25.99
16613;BME280;8419;52.358;9.752;2022-10-04T13:35:36;101320.00;;;30.84;26.31
16613;BME280;8419;52.358;9.752;2022-10-04T13:38:44;101325.00;;;30.56;26.46
16613;BME280;8419;52.358;9.752;2022-10-04T13:41:50;101326.00;;;30.33;26.55
16613;BME280;8419;52.358;9.752;2022-10-04T13:51:38;101323.00;;;29.63;27.17
16613;BME280;8419;52.358;9.752;2022-10-04T13:54:31;101310.00;;;29.61;27.16
16613;BME280;8419;52.358;9.752;2022-10-04T13:57:44;101315.00;;;29.93;26.79
16613;BME280;8419;52.358;9.752;2022-10-04T14:00:48;101314.00;;;30.25;26.40
16613;BME280;8419;52.358;9.752;2022-10-04T14:03:47;101309.00;;;30.14;26.46
16613;BME280;8419;52.358;9.752;2022-10-04T14:07:01;101307.00;;;29.88;26.84
16613;BME280;8419;52.358;9.752;2022-10-04T14:10:10;101305.00;;;29.64;27.20
16613;BME280;8419;52.358;9.752;2022-10-04T14:13:31;101298.00;;;29.47;27.52
16613;BME280;8419;52.358;9.752;2022-10-04T14:16:46;101289.00;;;29.41;27.61
16613;BME280;8419;52.358;9.752;2022-10-04T14:23:11;101284.00;;;29.06;28.04
16613;BME280;8419;52.358;9.752;2022-10-04T14:33:24;101273.00;;;29.06;28.10
16613;BME280;8419;52.358;9.752;2022-10-04T14:40:08;101263.00;;;28.97;28.25
16613;BME280;8419;52.358;9.752;2022-10-04T14:43:17;101254.00;;;29.01;28.23
16613;BME280;8419;52.358;9.752;2022-10-04T14:46:22;101268.00;;;28.95;28.33
16613;BME280;8419;52.358;9.752;2022-10-04T14:49:18;101254.00;;;28.72;28.58
16613;BME280;8419;52.358;9.752;2022-10-04T14:52:19;101255.00;;;28.72;28.58
16613;BME280;8419;52.358;9.752;2022-10-04T14:55:20;101251.00;;;28.66;28.75
16613;BME280;8419;52.358;9.752;2022-10-04T14:58:15;101245.00;;;28.79;28.71
16613;BME280;8419;52.358;9.752;2022-10-04T15:01:20;101240.00;;;28.84;28.53
16613;BME280;8419;52.358;9.752;2022-10-04T15:04:18;101253.00;;;28.72;28.73
16613;BME280;8419;52.358;9.752;2022-10-04T15:07:19;101255.00;;;28.80;28.62
16613;BME280;8419;52.358;9.752;2022-10-04T15:10:12;101263.00;;;28.74;28.78
16613;BME280;8419;52.358;9.752;2022-10-04T15:13:08;101266.00;;;28.67;28.85
16613;BME280;8419;52.358;9.752;2022-10-04T15:16:09;101264.00;;;28.53;29.02
16613;BME280;8419;52.358;9.752;2022-10-04T15:19:02;101262.00;;;28.47;29.00
16613;BME280;8419;52.358;9.752;2022-10-04T15:22:00;101266.00;;;28.51;29.02
16613;BME280;8419;52.358;9.752;2022-10-04T15:24:49;101258.00;;;29.03;28.54
16613;BME280;8419;52.358;9.752;2022-10-04T15:27:56;101259.00;;;29.37;27.87
16613;BME280;8419;52.358;9.752;2022-10-04T15:30:53;101263.00;;;29.05;28.22
16613;BME280;8419;52.358;9.752;2022-10-04T15:33:52;101257.00;;;28.65;28.71
16613;BME280;8419;52.358;9.752;2022-10-04T15:36:51;101260.00;;;28.56;28.74
16613;BME280;8419;52.358;9.752;2022-10-04T15:43:24;101237.00;;;28.52;28.87
16613;BME280;8419;52.358;9.752;2022-10-04T15:46:32;101234.00;;;28.50;28.83
16613;BME280;8419;52.358;9.752;2022-10-04T15:49:49;101235.00;;;29.14;28.22
16613;BME280;8419;52.358;9.752;2022-10-04T15:52:50;101216.00;;;29.97;27.37
16613;BME280;8419;52.358;9.752;2022-10-04T15:55:59;101210.00;;;30.02;27.24
16613;BME280;8419;52.358;9.752;2022-10-04T16:02:41;101219.00;;;29.03;28.61
16613;BME280;8419;52.358;9.752;2022-10-04T16:05:37;101228.00;;;28.88;28.88
16613;BME280;8419;52.358;9.752;2022-10-04T16:08:40;101228.00;;;28.89;28.81
16613;BME280;8419;52.358;9.752;2022-10-04T16:11:43;101241.00;;;28.52;29.25
16613;BME280;8419;52.358;9.752;2022-10-04T16:18:30;101239.00;;;27.99;30.06
16613;BME280;8419;52.358;9.752;2022-10-04T16:21:29;101230.00;;;27.73;30.26
16613;BME280;8419;52.358;9.752;2022-10-04T16:24:39;101230.00;;;27.50;30.59
16613;BME280;8419;52.358;9.752;2022-10-04T16:27:58;101238.00;;;27.33;30.78
16613;BME280;8419;52.358;9.752;2022-10-04T16:31:16;101234.00;;;27.07;31.10
16613;BME280;8419;52.358;9.752;2022-10-04T16:34:13;101220.00;;;26.82;31.45
16613;BME280;8419;52.358;9.752;2022-10-04T16:37:13;101217.00;;;26.72;31.58
16613;BME280;8419;52.358;9.752;2022-10-04T16:40:02;101219.00;;;26.52;31.90
16613;BME280;8419;52.358;9.752;2022-10-04T16:43:04;101215.00;;;26.39;32.14
16613;BME280;8419;52.358;9.752;2022-10-04T16:46:08;101224.00;;;26.34;32.23
16613;BME280;8419;52.358;9.752;2022-10-04T16:49:03;101226.00;;;26.28;32.34
16613;BME280;8419;52.358;9.752;2022-10-04T16:52:15;101216.00;;;26.10;32.65
16613;BME280;8419;52.358;9.752;2022-10-04T16:55:27;101213.00;;;25.94;32.93
16613;BME280;8419;52.358;9.752;2022-10-04T17:02:46;101223.00;;;25.79;33.44
16613;BME280;8419;52.358;9.752;2022-10-04T17:06:00;101221.00;;;25.86;33.17
16613;BME280;8419;52.358;9.752;2022-10-04T17:09:01;101225.00;;;25.70;33.35
16613;BME280;8419;52.358;9.752;2022-10-04T17:11:59;101221.00;;;25.52;33.62
16613;BME280;8419;52.358;9.752;2022-10-04T17:15:07;101215.00;;;25.48;33.77
16613;BME280;8419;52.358;9.752;2022-10-04T17:18:01;101217.00;;;25.48;33.77
16613;BME280;8419;52.358;9.752;2022-10-04T17:20:59;101207.00;;;25.42;33.92
16613;BME280;8419;52.358;9.752;2022-10-04T17:27:25;101226.00;;;25.40;34.27
16613;BME280;8419;52.358;9.752;2022-10-04T17:30:17;101220.00;;;25.11;34.58
16613;BME280;8419;52.358;9.752;2022-10-04T17:33:20;101223.00;;;25.03;34.71
16613;BME280;8419;52.358;9.752;2022-10-04T17:36:39;101221.00;;;25.00;34.73
16613;BME280;8419;52.358;9.752;2022-10-04T17:39:38;101221.00;;;25.04;34.64
16613;BME280;8419;52.358;9.752;2022-10-04T17:42:34;101227.00;;;24.99;34.71
16613;BME280;8419;52.358;9.752;2022-10-04T17:45:42;101229.00;;;24.94;34.81